createdAt,value
2022-12-17T17:08:01.254Z,5.50
2022-12-17T17:10:28.977Z,8.40
2022-12-17T17:12:56.420Z,10.40
2022-12-17T17:15:23.520Z,11.90
2022-12-17T17:17:54.691Z,13.00
2022-12-17T17:20:23.435Z,13.80
2022-12-17T17:22:50.341Z,14.50
2022-12-17T17:25:17.258Z,15.10
2022-12-17T17:27:44.285Z,15.90
2022-12-17T17:30:12.166Z,16.60
2022-12-17T17:32:39.074Z,17.10
2022-12-17T17:35:06.422Z,17.60
2022-12-17T17:37:33.233Z,17.90
2022-12-17T17:40:00.094Z,18.20
2022-12-17T17:42:26.971Z,18.40
2022-12-17T17:44:53.906Z,18.60
2022-12-17T17:47:20.734Z,18.70
2022-12-17T17:49:47.594Z,18.80
2022-12-17T17:52:14.472Z,18.80
2022-12-17T17:54:41.472Z,18.90
2022-12-17T17:57:09.275Z,19.00
2022-12-17T17:59:36.653Z,19.00
2022-12-17T18:02:04.216Z,19.10
2022-12-17T18:04:31.738Z,19.10
2022-12-17T18:09:45.658Z,19.20
2022-12-17T18:12:31.284Z,19.20
2022-12-17T18:15:14.180Z,19.20
2022-12-17T18:17:42.213Z,19.20
2022-12-17T18:20:10.117Z,19.20
2022-12-17T18:22:37.694Z,19.20
2022-12-17T18:25:05.543Z,19.20
2022-12-17T18:27:32.785Z,19.20
2022-12-17T18:29:59.675Z,19.20
2022-12-17T18:32:26.817Z,19.10
2022-12-17T18:34:53.888Z,19.10
2022-12-17T18:37:20.911Z,19.10
2022-12-17T18:39:49.292Z,19.10
2022-12-17T18:42:34.671Z,19.10
2022-12-17T18:45:02.769Z,19.10
2022-12-17T18:47:29.915Z,19.10
2022-12-17T18:49:57.336Z,19.10
2022-12-17T18:52:24.431Z,19.10
2022-12-17T18:54:51.451Z,19.10
2022-12-17T18:57:18.377Z,19.10
2022-12-17T18:59:46.054Z,19.10
2022-12-17T19:02:14.091Z,19.10
2022-12-17T19:04:41.357Z,19.10
2022-12-17T19:07:08.259Z,19.10
2022-12-17T19:09:36.383Z,19.10
2022-12-17T19:12:05.203Z,19.10
2022-12-17T19:14:32.514Z,19.10
2022-12-17T19:16:59.975Z,19.10
2022-12-17T19:19:27.263Z,19.00
2022-12-17T19:21:55.935Z,19.00
2022-12-17T19:24:23.831Z,19.00
2022-12-17T19:26:51.842Z,19.00
2022-12-17T19:29:20.666Z,19.00
2022-12-17T19:31:48.588Z,19.00
2022-12-17T19:34:17.528Z,19.00
2022-12-17T19:36:45.590Z,19.00
2022-12-17T19:39:17.792Z,19.00
2022-12-17T19:41:45.159Z,19.00
2022-12-17T19:44:14.838Z,19.00
2022-12-17T19:46:42.634Z,19.00
2022-12-17T19:49:12.752Z,19.00
2022-12-17T19:51:43.177Z,19.00
2022-12-17T19:54:12.602Z,19.00
2022-12-17T19:56:40.309Z,19.00
2022-12-17T19:59:08.460Z,19.00
2022-12-17T20:01:42.830Z,19.00
2022-12-17T20:04:12.322Z,19.00
2022-12-17T20:06:39.234Z,19.00
2022-12-17T20:09:07.122Z,19.00
2022-12-17T20:11:34.957Z,19.00
2022-12-17T20:14:09.543Z,19.10
2022-12-17T20:16:48.141Z,19.10
2022-12-17T20:19:18.427Z,19.20
2022-12-17T20:21:46.687Z,19.30
2022-12-17T20:24:14.447Z,19.30
2022-12-17T20:26:41.904Z,19.40
2022-12-17T20:29:09.699Z,19.50
2022-12-17T20:31:37.302Z,19.50
2022-12-17T20:34:06.232Z,19.60
2022-12-17T20:36:33.752Z,19.70
2022-12-17T20:39:01.442Z,19.70
2022-12-17T20:41:30.619Z,19.80
2022-12-17T20:43:57.742Z,19.80
2022-12-17T20:46:25.784Z,19.90
2022-12-17T20:48:53.654Z,19.90
2022-12-17T20:51:23.596Z,19.90
2022-12-17T20:53:52.128Z,20.00
2022-12-17T20:56:26.207Z,20.00
2022-12-17T20:58:58.955Z,20.10
2022-12-17T21:01:28.324Z,20.10
2022-12-17T21:03:58.177Z,20.10
2022-12-17T21:06:28.055Z,20.10
2022-12-17T21:08:56.324Z,20.10
2022-12-17T21:11:26.294Z,20.10
2022-12-17T21:13:54.249Z,20.20
2022-12-17T21:16:24.351Z,20.20
2022-12-17T21:18:53.357Z,20.20
2022-12-17T21:21:25.204Z,20.20
2022-12-17T21:23:52.405Z,20.20
2022-12-17T21:26:25.350Z,20.20
2022-12-17T21:28:53.855Z,20.20
2022-12-17T21:31:22.421Z,20.10
2022-12-17T21:33:50.814Z,20.10
2022-12-17T21:36:20.212Z,20.10
2022-12-17T21:38:49.362Z,20.10
2022-12-17T21:41:25.232Z,20.10
2022-12-17T21:43:57.168Z,20.00
2022-12-17T21:46:27.142Z,20.00
2022-12-17T21:48:55.836Z,20.00
2022-12-17T21:51:23.457Z,20.00
2022-12-17T21:53:55.399Z,19.90
2022-12-17T21:56:22.505Z,19.90
2022-12-17T21:58:50.255Z,19.90
2022-12-17T22:01:19.956Z,19.80
2022-12-17T22:03:53.991Z,19.80
2022-12-17T22:06:24.076Z,19.80
2022-12-17T22:08:59.914Z,19.80
2022-12-17T22:11:30.657Z,19.80
2022-12-17T22:14:13.774Z,19.80
2022-12-17T22:16:49.706Z,19.80
2022-12-17T22:19:22.657Z,19.80
2022-12-17T22:21:54.981Z,19.80
2022-12-17T22:24:25.305Z,19.80
2022-12-17T22:26:59.548Z,19.70
2022-12-17T22:29:50.752Z,19.70
2022-12-17T22:32:36.313Z,19.70
2022-12-17T22:35:25.949Z,19.70
2022-12-17T22:39:55.398Z,19.60
2022-12-17T22:44:32.292Z,19.60
2022-12-17T22:44:51.529Z,19.60
2022-12-17T22:46:19.707Z,19.60
2022-12-17T22:48:46.751Z,19.60
2022-12-17T22:51:18.626Z,19.50
2022-12-17T22:53:53.340Z,19.50
2022-12-17T22:56:53.289Z,19.50
2022-12-17T22:59:09.014Z,19.40
2022-12-17T23:01:35.976Z,19.40
2022-12-17T23:04:03.856Z,19.40
2022-12-17T23:06:31.040Z,19.40
2022-12-17T23:08:59.118Z,19.30
2022-12-17T23:11:28.086Z,19.30
2022-12-17T23:13:55.771Z,19.30
2022-12-17T23:16:22.982Z,19.20
2022-12-17T23:18:51.388Z,19.20
2022-12-17T23:21:24.869Z,19.20
2022-12-17T23:23:53.178Z,19.20
2022-12-17T23:26:23.543Z,19.20
2022-12-17T23:29:04.261Z,19.20
2022-12-17T23:31:34.705Z,19.30
2022-12-17T23:34:01.723Z,19.40
2022-12-17T23:36:28.596Z,19.40
2022-12-17T23:38:57.128Z,19.50
2022-12-17T23:41:26.990Z,19.60
2022-12-17T23:43:54.705Z,19.70
2022-12-17T23:46:23.886Z,19.80
2022-12-17T23:48:51.521Z,19.80
2022-12-17T23:51:20.470Z,19.90
2022-12-17T23:53:47.432Z,20.00
2022-12-17T23:56:20.487Z,20.00
2022-12-17T23:58:48.225Z,20.10
